Time;durP1;ratioP1;P1;durP2;ratioP2;P2;SDS_P1;SDS_P2;PMS_P1;PMS_P2;Temp;Humidity;BMP_temperature;BMP_pressure;BME280_temperature;BME280_humidity;BME280_pressure;Samples;Min_cycle;Max_cycle;Signal;HPM_P1;HPM_P2
2023/05/20 00:00:51;;;;;;;11.23;4.38;;;12.60;99.90;;;;;;5107424;28;20048;-75
2023/05/20 00:03:21;;;;;;;10.75;4.43;;;12.60;99.90;;;;;;5081048;28;20075;-75
2023/05/20 00:05:47;;;;;;;11.35;4.60;;;12.60;99.90;;;;;;5099763;28;20097;-75
2023/05/20 00:08:12;;;;;;;12.05;4.45;;;12.50;99.90;;;;;;5099161;28;20048;-75
2023/05/20 00:10:38;;;;;;;8.20;4.30;;;12.50;99.90;;;;;;5126010;27;20576;-75
2023/05/20 00:13:05;;;;;;;10.52;4.80;;;12.50;99.90;;;;;;5111407;28;20511;-76
2023/05/20 00:15:32;;;;;;;15.15;4.68;;;12.50;99.90;;;;;;5103875;28;20493;-75
2023/05/20 00:17:59;;;;;;;12.18;4.75;;;12.50;99.90;;;;;;5107900;28;20036;-75
2023/05/20 00:20:24;;;;;;;12.93;4.68;;;12.50;99.90;;;;;;5112431;27;20039;-75
2023/05/20 00:22:50;;;;;;;9.95;4.45;;;12.40;99.90;;;;;;5099419;28;20416;-72
2023/05/20 00:25:16;;;;;;;10.00;4.28;;;12.40;99.90;;;;;;5106497;28;20427;-74
2023/05/20 00:27:41;;;;;;;12.98;4.40;;;12.40;99.90;;;;;;5073649;28;20485;-72
2023/05/20 00:30:08;;;;;;;11.55;4.28;;;12.40;99.90;;;;;;5140208;27;20044;-73
2023/05/20 00:32:34;;;;;;;11.50;3.92;;;12.40;99.90;;;;;;5107266;28;20052;-72
2023/05/20 00:35:00;;;;;;;;;;;12.40;99.90;;;;;;5110688;28;20039;-73
2023/05/20 00:37:26;;;;;;;10.57;4.95;;;12.40;99.90;;;;;;5110556;28;19926;-72
2023/05/20 00:39:52;;;;;;;10.60;4.43;;;12.40;99.90;;;;;;5123874;27;20078;-72
2023/05/20 00:42:22;;;;;;;11.77;4.47;;;12.40;99.90;;;;;;5090607;28;20082;-74
2023/05/20 00:44:48;;;;;;;13.18;4.57;;;12.50;99.90;;;;;;5109897;28;20056;-72
2023/05/20 00:47:15;;;;;;;9.77;5.10;;;12.50;99.90;;;;;;5110340;28;20062;-72
2023/05/20 00:49:41;;;;;;;9.13;4.57;;;12.50;99.90;;;;;;5107420;28;20056;-72
2023/05/20 00:52:07;;;;;;;10.32;4.20;;;12.50;99.90;;;;;;5072951;28;20047;-73
2023/05/20 00:54:33;;;;;;;;;;;12.50;99.90;;;;;;5090247;28;20044;-73
2023/05/20 00:56:59;;;;;;;13.15;4.55;;;12.50;99.90;;;;;;5123868;27;19930;-74
2023/05/20 00:59:25;;;;;;;9.25;4.55;;;12.60;99.90;;;;;;5088796;28;20060;-73
2023/05/20 01:01:51;;;;;;;12.45;4.68;;;12.60;99.90;;;;;;5120610;27;20130;-74
2023/05/20 01:04:17;;;;;;;;;;;12.60;99.90;;;;;;5111080;28;20064;-73
2023/05/20 01:06:45;;;;;;;11.82;4.30;;;12.50;99.90;;;;;;5109771;28;20393;-74
2023/05/20 01:09:12;;;;;;;11.82;4.05;;;12.50;99.90;;;;;;5093915;28;20069;-73
2023/05/20 01:11:47;;;;;;;16.42;4.80;;;12.50;99.90;;;;;;5110391;28;20047;-74
2023/05/20 01:14:17;;;;;;;11.60;4.53;;;12.50;99.90;;;;;;5109966;28;20046;-73
2023/05/20 01:16:44;;;;;;;13.90;4.63;;;12.50;99.90;;;;;;5126996;27;20052;-74
2023/05/20 01:19:28;;;;;;;13.23;4.60;;;12.50;99.90;;;;;;5109812;28;20083;-73
2023/05/20 01:21:55;;;;;;;11.52;4.53;;;12.60;99.90;;;;;;5110265;28;20577;-73
2023/05/20 01:24:21;;;;;;;12.52;4.70;;;12.50;99.90;;;;;;5092593;28;20036;-76
2023/05/20 01:26:49;;;;;;;7.55;4.25;;;12.50;99.90;;;;;;5110188;28;20043;-74
2023/05/20 01:29:17;;;;;;;13.02;4.13;;;12.60;99.90;;;;;;5106021;28;20056;-73
2023/05/20 01:31:45;;;;;;;11.30;4.78;;;12.60;99.90;;;;;;5101443;28;20051;-74
2023/05/20 01:34:11;;;;;;;10.00;4.18;;;12.60;99.90;;;;;;5110248;28;20060;-74
2023/05/20 01:36:39;;;;;;;8.75;4.38;;;12.60;99.90;;;;;;5138886;27;20052;-73
2023/05/20 01:39:05;;;;;;;11.77;4.72;;;12.60;99.90;;;;;;5089824;28;20056;-74
2023/05/20 01:41:33;;;;;;;;;;;12.60;99.90;;;;;;5106906;28;20069;-73
2023/05/20 01:43:59;;;;;;;10.45;4.20;;;12.60;99.90;;;;;;5123143;27;19924;-73
2023/05/20 01:46:25;;;;;;;13.02;4.80;;;12.50;99.90;;;;;;5106383;28;20048;-75
2023/05/20 01:48:51;;;;;;;10.23;4.38;;;12.50;99.90;;;;;;5106418;28;20054;-72
2023/05/20 01:51:16;;;;;;;10.88;4.20;;;12.50;99.90;;;;;;5090173;28;20047;-74
2023/05/20 01:53:43;;;;;;;11.13;4.18;;;12.50;99.90;;;;;;5110467;27;20047;-74
2023/05/20 01:56:08;;;;;;;;;;;12.50;99.90;;;;;;5073349;28;20059;-74
2023/05/20 01:58:34;;;;;;;13.20;5.03;;;12.50;99.90;;;;;;5088516;28;19928;-74
2023/05/20 02:01:00;;;;;;;10.90;4.35;;;12.50;99.90;;;;;;5092796;28;20040;-74
2023/05/20 02:03:26;;;;;;;12.05;3.97;;;12.50;99.90;;;;;;5126569;27;20097;-76
2023/05/20 02:05:52;;;;;;;15.82;4.38;;;12.50;99.90;;;;;;5109687;28;20051;-74
2023/05/20 02:08:18;;;;;;;10.05;3.92;;;12.50;99.90;;;;;;5110133;28;20491;-74
2023/05/20 02:10:46;;;;;;;11.73;4.38;;;12.50;99.90;;;;;;5109622;28;20043;-74
2023/05/20 02:13:12;;;;;;;11.38;4.10;;;12.50;99.90;;;;;;5109767;28;20059;-75
2023/05/20 02:15:41;;;;;;;9.60;4.20;;;12.40;99.90;;;;;;5109020;28;20488;-74
2023/05/20 02:18:07;;;;;;;11.75;4.13;;;12.50;99.90;;;;;;5107441;28;20047;-74
2023/05/20 02:20:36;;;;;;;;;;;12.40;99.90;;;;;;5106568;28;20052;-74
2023/05/20 02:23:04;;;;;;;8.68;3.60;;;12.40;99.90;;;;;;5112239;28;19985;-74
2023/05/20 02:25:33;;;;;;;11.25;3.92;;;12.40;99.90;;;;;;5092134;28;20753;-74
2023/05/20 02:27:59;;;;;;;9.35;4.10;;;12.40;99.90;;;;;;5109363;28;20124;-74
2023/05/20 02:30:28;;;;;;;13.13;4.60;;;12.40;99.90;;;;;;5112844;28;20111;-74
2023/05/20 02:32:54;;;;;;;12.45;4.28;;;12.40;99.90;;;;;;5123814;27;20067;-74
2023/05/20 02:35:20;;;;;;;10.27;4.20;;;12.50;99.90;;;;;;5093186;28;20052;-74
2023/05/20 02:37:47;;;;;;;12.35;3.72;;;12.40;99.90;;;;;;5096378;28;20039;-74
2023/05/20 02:40:13;;;;;;;9.32;3.88;;;12.50;99.90;;;;;;5130515;27;20140;-76
2023/05/20 02:42:40;;;;;;;9.27;3.80;;;12.40;99.90;;;;;;5095518;28;20106;-74
2023/05/20 02:45:06;;;;;;;9.85;4.00;;;12.40;99.90;;;;;;5111605;28;20491;-74
2023/05/20 02:47:32;;;;;;;9.35;3.85;;;12.40;99.90;;;;;;5075164;28;20091;-74
2023/05/20 02:49:58;;;;;;;10.32;4.10;;;12.40;99.90;;;;;;5083571;28;20449;-74
2023/05/20 02:52:23;;;;;;;9.20;3.70;;;12.30;99.90;;;;;;5130225;27;20057;-74
2023/05/20 02:54:49;;;;;;;8.50;3.63;;;12.30;99.90;;;;;;5112748;28;20043;-76
2023/05/20 02:57:15;;;;;;;13.85;4.10;;;12.30;99.90;;;;;;5078904;28;20055;-74
2023/05/20 02:59:41;;;;;;;9.00;3.35;;;12.30;99.90;;;;;;5112129;28;20074;-74
2023/05/20 03:02:06;;;;;;;8.38;3.83;;;12.30;99.90;;;;;;5113568;28;20058;-74
2023/05/20 03:04:32;;;;;;;9.90;3.72;;;12.30;99.90;;;;;;5129918;27;20096;-76
2023/05/20 03:06:58;;;;;;;9.27;4.07;;;12.30;99.90;;;;;;5129847;27;20157;-74
2023/05/20 03:09:24;;;;;;;9.45;4.13;;;12.20;99.90;;;;;;5111288;28;20057;-74
2023/05/20 03:11:49;;;;;;;8.40;3.50;;;12.20;99.90;;;;;;5129804;27;20086;-74
2023/05/20 03:14:15;;;;;;;10.57;4.38;;;12.20;99.90;;;;;;5112404;28;20087;-74
2023/05/20 03:16:41;;;;;;;10.10;3.85;;;12.20;99.90;;;;;;5109595;28;20044;-74
2023/05/20 03:19:07;;;;;;;11.18;3.88;;;12.10;99.90;;;;;;5101672;28;20055;-75
2023/05/20 03:21:33;;;;;;;9.05;3.63;;;12.10;99.90;;;;;;5112709;28;20039;-76
2023/05/20 03:23:58;;;;;;;11.95;3.92;;;12.10;99.90;;;;;;5112797;28;20503;-74
2023/05/20 03:26:24;;;;;;;9.55;3.72;;;12.10;99.90;;;;;;5112561;28;20047;-74
2023/05/20 03:28:50;;;;;;;8.43;3.50;;;12.10;99.90;;;;;;5128559;27;20039;-74
2023/05/20 03:31:16;;;;;;;10.00;3.53;;;12.10;99.90;;;;;;5112760;28;20058;-74
2023/05/20 03:33:42;;;;;;;9.00;3.70;;;12.10;99.90;;;;;;5111994;28;20039;-74
2023/05/20 03:36:07;;;;;;;9.82;3.42;;;12.10;99.90;;;;;;5125226;27;20460;-74
2023/05/20 03:38:33;;;;;;;9.48;3.55;;;12.00;99.90;;;;;;5092210;28;20040;-74
2023/05/20 03:40:59;;;;;;;11.93;3.22;;;12.00;99.90;;;;;;5107681;28;20051;-74
2023/05/20 03:43:25;;;;;;;7.20;3.00;;;12.00;99.90;;;;;;5091983;28;20482;-74
2023/05/20 03:45:51;;;;;;;9.07;3.55;;;12.00;99.90;;;;;;5095520;28;20072;-73
2023/05/20 03:48:17;;;;;;;9.45;3.40;;;11.90;99.90;;;;;;5112146;28;20043;-74
2023/05/20 03:50:42;;;;;;;9.15;3.55;;;11.90;99.90;;;;;;5128724;27;20052;-74
2023/05/20 03:53:08;;;;;;;8.35;3.20;;;11.80;99.90;;;;;;5129667;27;20473;-74
2023/05/20 03:55:34;;;;;;;10.20;3.35;;;11.80;99.90;;;;;;5111717;28;20056;-74
2023/05/20 03:58:00;;;;;;;7.90;3.03;;;11.80;99.90;;;;;;5102462;28;20056;-74
2023/05/20 04:00:26;;;;;;;6.60;2.88;;;11.80;99.90;;;;;;5091122;28;20542;-73
2023/05/20 04:02:52;;;;;;;9.07;3.50;;;11.70;99.90;;;;;;5090862;28;20040;-74
2023/05/20 04:05:18;;;;;;;9.15;3.15;;;11.70;99.90;;;;;;5108836;28;20055;-74
2023/05/20 04:07:44;;;;;;;;;;;11.70;99.90;;;;;;5091146;28;20050;-74
2023/05/20 04:10:10;;;;;;;6.95;3.30;;;11.60;99.90;;;;;;5091757;28;19924;-74
2023/05/20 04:12:37;;;;;;;;;;;11.60;99.90;;;;;;5092055;28;20043;-74
2023/05/20 04:15:03;;;;;;;8.70;2.92;;;11.60;99.90;;;;;;5073476;28;19923;-74
2023/05/20 04:17:30;;;;;;;;;;;11.60;99.90;;;;;;5091339;28;20056;-74
2023/05/20 04:19:58;;;;;;;9.93;3.22;;;11.60;99.90;;;;;;5089781;28;19919;-74
2023/05/20 04:22:25;;;;;;;11.13;2.90;;;11.60;99.90;;;;;;5109657;28;20092;-74
2023/05/20 04:24:51;;;;;;;6.50;2.97;;;11.60;99.90;;;;;;5111158;28;20051;-74
2023/05/20 04:27:17;;;;;;;10.45;3.20;;;11.60;99.90;;;;;;5093298;28;20095;-74
2023/05/20 04:29:45;;;;;;;5.22;2.83;;;11.50;99.90;;;;;;5141515;27;20373;-75
2023/05/20 04:32:18;;;;;;;9.02;3.03;;;11.50;99.90;;;;;;5128401;27;20052;-74
2023/05/20 04:34:44;;;;;;;8.93;3.10;;;11.60;99.90;;;;;;5111083;28;20488;-74
2023/05/20 04:37:11;;;;;;;;;;;11.50;99.90;;;;;;5109807;28;20047;-74
2023/05/20 04:39:37;;;;;;;9.80;3.50;;;11.50;99.90;;;;;;5091276;28;19920;-74
2023/05/20 04:42:03;;;;;;;4.65;2.67;;;11.60;99.90;;;;;;5090733;28;20060;-74
2023/05/20 04:44:29;;;;;;;;;;;11.60;99.90;;;;;;5090646;28;20455;-74
2023/05/20 04:46:58;;;;;;;5.05;2.55;;;11.60;99.90;;;;;;5102754;28;19923;-74
2023/05/20 04:49:30;;;;;;;6.55;2.70;;;11.60;99.90;;;;;;5110991;28;20633;-74
2023/05/20 04:51:56;;;;;;;7.70;2.95;;;11.60;99.90;;;;;;5101727;28;20480;-74
2023/05/20 04:54:21;;;;;;;5.65;2.67;;;11.70;99.90;;;;;;5090969;28;20040;-74
2023/05/20 04:56:47;;;;;;;7.97;2.97;;;11.70;99.90;;;;;;5103167;28;20063;-74
2023/05/20 04:59:13;;;;;;;7.20;2.50;;;11.70;99.90;;;;;;5110450;28;20052;-74
2023/05/20 05:01:39;;;;;;;6.65;2.38;;;11.80;99.90;;;;;;5111201;28;20109;-74
2023/05/20 05:04:05;;;;;;;5.30;2.65;;;11.80;99.90;;;;;;5110139;28;20062;-74
2023/05/20 05:06:30;;;;;;;6.63;3.00;;;11.80;99.90;;;;;;5125572;27;20040;-74
2023/05/20 05:08:56;;;;;;;5.43;2.50;;;11.80;99.90;;;;;;5093522;28;20043;-74
2023/05/20 05:11:22;;;;;;;7.90;2.30;;;11.90;99.90;;;;;;5109836;28;20044;-75
2023/05/20 05:13:48;;;;;;;3.95;2.25;;;11.90;99.90;;;;;;5109498;28;20040;-74
2023/05/20 05:16:13;;;;;;;6.18;2.58;;;11.90;99.90;;;;;;5111107;28;20047;-74
2023/05/20 05:18:39;;;;;;;5.68;2.55;;;12.00;99.90;;;;;;5127554;27;20085;-74
2023/05/20 05:21:05;;;;;;;4.45;2.30;;;12.00;99.90;;;;;;5108998;27;20089;-74
2023/05/20 05:23:32;;;;;;;5.45;2.05;;;12.00;99.90;;;;;;5073664;28;20048;-74
2023/05/20 05:25:58;;;;;;;6.60;2.38;;;12.10;99.90;;;;;;5106634;28;20040;-73
2023/05/20 05:28:24;;;;;;;7.72;2.35;;;12.10;99.90;;;;;;5123574;27;20040;-74
2023/05/20 05:30:50;;;;;;;;;;;12.10;99.90;;;;;;5123861;27;20451;-74
2023/05/20 05:33:16;;;;;;;6.78;2.20;;;12.20;99.90;;;;;;5093264;28;19924;-74
2023/05/20 05:35:42;;;;;;;;;;;12.20;99.90;;;;;;5110555;28;20047;-74
2023/05/20 05:38:08;;;;;;;3.53;2.20;;;12.30;99.90;;;;;;5091685;28;19927;-74
2023/05/20 05:40:34;;;;;;;;;;;12.30;99.90;;;;;;5093696;28;20051;-74
2023/05/20 05:43:00;;;;;;;4.70;2.10;;;12.30;99.90;;;;;;5109027;28;19919;-74
2023/05/20 05:45:25;;;;;;;4.53;2.05;;;12.40;99.90;;;;;;5126400;27;20092;-74
2023/05/20 05:47:51;;;;;;;4.90;2.28;;;12.40;99.90;;;;;;5125802;27;20075;-73
2023/05/20 05:50:17;;;;;;;4.47;2.10;;;12.40;99.90;;;;;;5127045;27;20054;-75
2023/05/20 05:52:42;;;;;;;3.08;2.03;;;12.50;99.90;;;;;;5105442;28;20048;-74
2023/05/20 05:55:09;;;;;;;4.20;2.00;;;12.50;99.90;;;;;;5123336;27;20040;-74
2023/05/20 05:57:35;;;;;;;4.95;2.03;;;12.50;99.90;;;;;;5109372;28;20138;-74
2023/05/20 06:00:00;;;;;;;5.57;2.20;;;12.60;99.90;;;;;;5126034;27;20135;-74
2023/05/20 06:02:26;;;;;;;6.18;2.03;;;12.60;99.90;;;;;;5126470;27;20125;-74
2023/05/20 06:04:52;;;;;;;3.65;2.08;;;12.70;99.90;;;;;;5126085;27;20107;-74
2023/05/20 06:07:18;;;;;;;;;;;12.70;99.90;;;;;;5114706;27;20215;-74
2023/05/20 06:09:44;;;;;;;4.45;1.85;;;12.80;99.90;;;;;;5088927;28;20132;-74
2023/05/20 06:12:10;;;;;;;3.97;1.90;;;12.80;99.90;;;;;;5105710;28;20096;-74
2023/05/20 06:14:36;;;;;;;2.90;1.80;;;12.80;99.90;;;;;;5140188;27;20044;-74
2023/05/20 06:17:02;;;;;;;5.57;1.90;;;12.90;99.90;;;;;;5126457;28;20054;-74
2023/05/20 06:19:28;;;;;;;4.35;2.28;;;12.90;99.90;;;;;;5109523;28;20442;-74
2023/05/20 06:21:54;;;;;;;5.82;2.00;;;12.90;99.90;;;;;;5088612;28;20131;-74
2023/05/20 06:24:20;;;;;;;4.28;2.05;;;13.00;99.90;;;;;;5123240;28;20059;-74
2023/05/20 06:26:48;;;;;;;6.28;2.45;;;13.10;99.90;;;;;;5136721;27;20047;-74
2023/05/20 06:29:14;;;;;;;4.13;2.17;;;13.10;99.90;;;;;;5108534;28;20389;-74
2023/05/20 06:31:40;;;;;;;4.53;1.90;;;13.10;99.90;;;;;;5109792;28;20050;-74
2023/05/20 06:34:05;;;;;;;6.53;2.13;;;13.20;99.90;;;;;;5122702;28;20481;-74
2023/05/20 06:36:31;;;;;;;8.32;2.35;;;13.20;99.90;;;;;;5126158;28;20043;-74
2023/05/20 06:38:57;;;;;;;3.05;1.88;;;13.30;99.90;;;;;;5109012;28;20039;-74
2023/05/20 06:41:22;;;;;;;5.88;1.90;;;13.30;99.90;;;;;;5125886;27;20184;-75
2023/05/20 06:43:48;;;;;;;5.20;2.38;;;13.40;99.90;;;;;;5088195;28;20050;-74
2023/05/20 06:46:13;;;;;;;5.55;2.38;;;13.40;99.90;;;;;;5088708;28;20051;-74
2023/05/20 06:48:39;;;;;;;7.18;2.45;;;13.50;99.90;;;;;;5088881;28;20047;-73
2023/05/20 06:51:09;;;;;;;4.70;1.95;;;13.50;99.90;;;;;;5088419;28;20048;-74
2023/05/20 06:53:35;;;;;;;5.00;2.20;;;13.60;99.90;;;;;;5131966;27;20070;-74
2023/05/20 06:56:01;;;;;;;6.70;2.53;;;13.60;99.90;;;;;;5105679;28;20501;-74
2023/05/20 06:58:28;;;;;;;4.38;2.33;;;13.70;99.90;;;;;;5122654;28;20056;-74
2023/05/20 07:00:53;;;;;;;;;;;13.70;99.90;;;;;;5099007;28;20059;-77
2023/05/20 07:03:19;;;;;;;4.88;2.30;;;13.80;99.90;;;;;;5108963;28;19930;-75
2023/05/20 07:05:44;;;;;;;4.68;2.55;;;13.80;99.90;;;;;;5109321;28;20062;-76
2023/05/20 07:08:10;;;;;;;3.78;2.05;;;13.90;99.90;;;;;;5091874;28;20055;-76
2023/05/20 07:10:36;;;;;;;5.15;2.53;;;13.90;99.90;;;;;;5106155;28;20044;-76
2023/05/20 07:13:02;;;;;;;4.95;2.75;;;14.00;99.90;;;;;;5122618;27;20032;-74
2023/05/20 07:15:28;;;;;;;6.45;2.60;;;14.10;99.90;;;;;;5081999;28;20047;-75
2023/05/20 07:17:54;;;;;;;6.57;2.60;;;14.20;99.90;;;;;;5112760;28;20130;-75
2023/05/20 07:20:20;;;;;;;4.82;2.40;;;14.30;99.90;;;;;;5109596;27;20032;-76
2023/05/20 07:22:47;;;;;;;5.63;2.50;;;14.30;99.90;;;;;;5142077;27;20044;-75
2023/05/20 07:25:13;;;;;;;8.77;2.70;;;14.40;99.90;;;;;;5128913;27;20565;-74
2023/05/20 07:27:39;;;;;;;4.80;2.60;;;14.50;99.90;;;;;;5094717;28;20043;-75
2023/05/20 07:30:05;;;;;;;5.32;2.60;;;14.60;99.90;;;;;;5125435;27;20102;-74
2023/05/20 07:32:31;;;;;;;5.43;2.53;;;14.60;99.90;;;;;;5126040;27;20094;-75
2023/05/20 07:34:56;;;;;;;9.05;2.38;;;14.60;99.90;;;;;;5075783;28;20091;-76
2023/05/20 07:37:22;;;;;;;3.55;2.22;;;14.70;99.90;;;;;;5101222;28;20055;-75
2023/05/20 07:39:48;;;;;;;6.60;2.72;;;14.80;99.90;;;;;;5104130;28;20060;-74
2023/05/20 07:42:13;;;;;;;5.38;2.67;;;14.90;99.90;;;;;;5091826;28;20123;-75
2023/05/20 07:44:39;;;;;;;8.20;2.67;;;14.90;99.90;;;;;;5091402;28;20052;-76
2023/05/20 07:47:05;;;;;;;4.93;2.53;;;15.10;99.90;;;;;;5108084;28;20086;-76
2023/05/20 07:49:30;;;;;;;6.70;2.67;;;15.20;99.90;;;;;;5075185;28;20654;-74
2023/05/20 07:51:56;;;;;;;7.57;2.60;;;15.30;99.90;;;;;;5105398;28;20568;-74
2023/05/20 07:54:22;;;;;;;6.97;2.67;;;15.40;99.90;;;;;;5111669;28;20057;-77
2023/05/20 07:56:48;;;;;;;;;;;15.40;99.90;;;;;;5111642;28;20070;-73
2023/05/20 07:59:14;;;;;;;5.55;2.30;;;15.50;99.90;;;;;;5110233;28;19927;-71
2023/05/20 08:01:41;;;;;;;7.70;2.58;;;15.60;99.90;;;;;;5111749;28;20499;-70
2023/05/20 08:04:07;;;;;;;5.88;2.80;;;15.70;99.90;;;;;;5094631;28;20044;-71
2023/05/20 08:06:34;;;;;;;5.65;2.65;;;15.90;99.90;;;;;;5131107;27;20046;-76
2023/05/20 08:09:00;;;;;;;6.72;2.47;;;15.90;99.90;;;;;;5108775;27;20044;-74
2023/05/20 08:11:26;;;;;;;4.70;2.30;;;16.00;99.90;;;;;;5091228;28;20052;-73
2023/05/20 08:13:52;;;;;;;7.68;2.40;;;16.00;99.90;;;;;;5091915;28;20047;-74
2023/05/20 08:16:20;;;;;;;5.30;2.58;;;16.00;99.90;;;;;;5108233;28;20304;-73
2023/05/20 08:18:46;;;;;;;5.25;2.67;;;16.10;99.90;;;;;;5125345;27;20059;-73
2023/05/20 08:21:12;;;;;;;5.07;2.70;;;16.10;99.90;;;;;;5096457;28;20043;-73
2023/05/20 08:23:38;;;;;;;;;;;16.20;99.90;;;;;;5112029;28;20054;-73
2023/05/20 08:26:04;;;;;;;4.30;2.60;;;16.20;99.90;;;;;;5091073;28;19924;-74
2023/05/20 08:28:30;;;;;;;8.60;2.72;;;16.30;99.90;;;;;;5073302;28;20131;-70
2023/05/20 08:30:59;;;;;;;6.22;2.50;;;16.40;99.90;;;;;;5111106;28;20054;-69
2023/05/20 08:33:25;;;;;;;5.20;2.75;;;16.40;99.90;;;;;;5092288;28;20702;-74
2023/05/20 08:35:51;;;;;;;7.95;2.50;;;16.40;99.90;;;;;;5111182;28;20051;-72
2023/05/20 08:38:16;;;;;;;;;;;16.50;99.90;;;;;;5110302;28;20121;-73
2023/05/20 08:40:42;;;;;;;6.65;2.63;;;16.50;99.90;;;;;;5109855;28;19971;-74
2023/05/20 08:43:08;;;;;;;4.88;2.38;;;16.50;99.90;;;;;;5107837;28;20052;-74
2023/05/20 08:45:36;;;;;;;;;;;16.60;99.90;;;;;;5110158;28;20054;-73
2023/05/20 08:48:04;;;;;;;5.18;2.60;;;16.80;99.90;;;;;;5110926;28;20322;-72
2023/05/20 08:50:30;;;;;;;5.75;2.47;;;16.80;99.90;;;;;;5109454;28;20104;-71
2023/05/20 08:52:56;;;;;;;5.18;2.33;;;16.80;99.90;;;;;;5110983;28;20040;-71
2023/05/20 08:55:25;;;;;;;;;;;16.90;99.90;;;;;;5110881;27;20046;-71
2023/05/20 08:57:53;;;;;;;5.00;2.13;;;16.90;99.90;;;;;;5108693;28;19923;-70
2023/05/20 09:00:22;;;;;;;3.90;2.33;;;17.00;99.90;;;;;;5108655;28;20126;-70
2023/05/20 09:02:48;;;;;;;9.23;2.60;;;17.10;99.90;;;;;;5108551;28;20075;-71
2023/05/20 09:05:14;;;;;;;6.43;2.50;;;17.20;99.90;;;;;;5107742;28;20071;-70
2023/05/20 09:07:42;;;;;;;9.63;2.45;;;17.30;99.90;;;;;;5109100;28;20043;-71
2023/05/20 09:10:08;;;;;;;4.38;2.30;;;17.30;99.90;;;;;;5110790;28;20043;-71
2023/05/20 09:12:34;;;;;;;7.07;2.40;;;17.40;99.90;;;;;;5141505;27;20047;-73
2023/05/20 09:15:00;;;;;;;;;;;17.50;99.90;;;;;;5144758;27;20052;-75
2023/05/20 09:17:26;;;;;;;6.80;2.35;;;17.60;97.90;;;;;;5109955;28;20262;-74
2023/05/20 09:19:54;;;;;;;5.65;2.40;;;17.60;99.90;;;;;;5111142;28;20445;-74
2023/05/20 09:22:28;;;;;;;4.78;2.47;;;17.70;98.20;;;;;;5127408;27;20127;-74
2023/05/20 09:24:54;;;;;;;4.93;2.10;;;17.70;98.30;;;;;;5108985;28;20066;-74
2023/05/20 09:27:21;;;;;;;7.47;2.45;;;17.80;98.40;;;;;;5103025;28;20039;-74
2023/05/20 09:29:50;;;;;;;8.23;2.42;;;17.80;98.90;;;;;;5072859;28;20048;-74
2023/05/20 09:32:18;;;;;;;5.43;2.30;;;17.90;99.10;;;;;;5090533;28;20094;-74
2023/05/20 09:34:46;;;;;;;5.25;2.15;;;18.00;98.30;;;;;;5091308;28;20485;-73
2023/05/20 09:37:13;;;;;;;3.97;2.15;;;18.10;98.00;;;;;;5123605;27;20348;-80
2023/05/20 09:39:57;;;;;;;8.18;2.42;;;18.10;97.20;;;;;;5089679;28;20142;-73
2023/05/20 09:42:35;;;;;;;4.90;2.10;;;18.30;96.60;;;;;;5089711;28;20052;-74
2023/05/20 09:45:03;;;;;;;5.75;2.33;;;18.50;96.50;;;;;;5118325;27;20051;-74
2023/05/20 09:47:30;;;;;;;8.07;2.30;;;18.60;95.50;;;;;;5109289;28;20077;-73
2023/05/20 09:49:56;;;;;;;7.55;2.50;;;18.70;93.20;;;;;;5127688;27;20496;-74
2023/05/20 09:52:21;;;;;;;;;;;18.70;93.70;;;;;;5110048;28;20059;-74
2023/05/20 09:54:49;;;;;;;4.38;2.25;;;18.80;92.70;;;;;;5110215;28;19931;-74
2023/05/20 09:57:15;;;;;;;6.88;2.13;;;18.90;93.50;;;;;;5092143;28;20145;-74
2023/05/20 09:59:44;;;;;;;7.82;2.50;;;18.90;93.70;;;;;;5089197;28;20044;-74
2023/05/20 10:02:10;;;;;;;12.13;2.80;;;19.00;92.00;;;;;;5090902;28;20074;-75
2023/05/20 10:04:37;;;;;;;;;;;19.00;92.10;;;;;;5090122;28;20480;-75
2023/05/20 10:07:11;;;;;;;5.55;1.90;;;19.10;92.00;;;;;;5109212;28;19926;-72
2023/05/20 10:10:05;;;;;;;7.13;2.35;;;19.20;92.20;;;;;;5109496;28;20073;-77
2023/05/20 10:12:50;;;;;;;5.38;2.13;;;19.30;88.30;;;;;;5087110;28;20048;-74
2023/05/20 10:15:25;;;;;;;7.85;2.00;;;19.30;88.30;;;;;;5088761;28;20043;-77
2023/05/20 10:18:08;;;;;;;7.43;2.05;;;19.50;83.70;;;;;;5116689;28;20058;-74
2023/05/20 10:20:47;;;;;;;15.25;2.35;;;19.60;81.70;;;;;;5106734;28;20043;-75
2023/05/20 10:23:26;;;;;;;5.35;2.20;;;19.70;78.10;;;;;;5107281;28;20039;-75
2023/05/20 10:25:53;;;;;;;9.65;2.00;;;19.90;75.70;;;;;;5107171;28;20047;-72
2023/05/20 10:28:30;;;;;;;5.25;1.70;;;20.00;77.30;;;;;;5107463;28;20139;-73
2023/05/20 10:30:57;;;;;;;6.57;2.20;;;20.20;76.90;;;;;;5108074;28;20104;-76
2023/05/20 10:33:25;;;;;;;4.80;2.10;;;20.20;75.70;;;;;;5089436;28;20544;-76
2023/05/20 10:35:51;;;;;;;7.95;1.88;;;20.30;74.50;;;;;;5108670;28;20051;-75
2023/05/20 10:38:17;;;;;;;;;;;20.40;73.40;;;;;;5119269;28;20043;-76
2023/05/20 10:40:43;;;;;;;4.50;1.90;;;20.40;70.10;;;;;;5107943;28;19930;-75
2023/05/20 10:43:10;;;;;;;;;;;20.50;73.80;;;;;;5091391;28;20051;-75
2023/05/20 10:45:46;;;;;;;;;;;20.60;69.60;;;;;;5115521;28;19919;-76
2023/05/20 10:48:22;;;;;;;5.03;1.80;;;20.80;71.50;;;;;;5107257;28;19919;-75
2023/05/20 10:50:50;;;;;;;9.73;2.13;;;20.90;73.30;;;;;;5109131;28;20039;-76
2023/05/20 10:53:16;;;;;;;5.10;1.77;;;21.10;71.50;;;;;;5111704;28;20094;-75
2023/05/20 10:55:48;;;;;;;;;;;21.20;72.40;;;;;;5095018;28;20495;-73
2023/05/20 10:58:14;;;;;;;5.53;1.95;;;21.30;69.40;;;;;;5110894;28;19984;-73
2023/05/20 11:00:39;;;;;;;;;;;21.40;72.30;;;;;;5111402;28;20544;-72
2023/05/20 11:03:06;;;;;;;13.30;2.38;;;21.40;64.80;;;;;;5092240;28;19920;-75
2023/05/20 11:05:32;;;;;;;7.22;3.10;;;21.40;67.30;;;;;;5103367;28;20043;-73
2023/05/20 11:08:06;;;;;;;6.18;2.10;;;21.40;66.20;;;;;;5120079;27;20110;-75
2023/05/20 11:10:33;;;;;;;6.43;1.77;;;21.50;65.40;;;;;;5108720;28;20043;-74
2023/05/20 11:13:00;;;;;;;6.60;1.92;;;21.50;64.90;;;;;;5112913;28;20104;-74
2023/05/20 11:15:26;;;;;;;4.00;1.80;;;21.50;64.40;;;;;;5111746;28;20043;-73
2023/05/20 11:17:53;;;;;;;;;;;21.60;64.30;;;;;;5112538;28;20048;-74
2023/05/20 11:20:19;;;;;;;3.47;1.95;;;21.60;64.30;;;;;;5146988;27;19965;-78
2023/05/20 11:22:45;;;;;;;3.55;1.70;;;21.70;65.20;;;;;;5112081;28;20047;-74
2023/05/20 11:25:10;;;;;;;;;;;21.60;65.40;;;;;;5130353;27;20055;-75
2023/05/20 11:27:40;;;;;;;6.22;1.85;;;21.80;62.00;;;;;;5084371;28;20438;-76
2023/05/20 11:30:06;;;;;;;3.70;1.90;;;22.10;63.90;;;;;;5121279;27;20135;-75
2023/05/20 11:32:32;;;;;;;4.78;1.80;;;22.40;65.20;;;;;;5117514;27;20050;-76
2023/05/20 11:34:58;;;;;;;6.72;2.00;;;22.80;64.60;;;;;;5090415;28;20718;-74
2023/05/20 11:37:23;;;;;;;4.53;1.88;;;23.00;63.70;;;;;;5115323;27;20044;-77
2023/05/20 11:40:06;;;;;;;4.57;1.80;;;23.00;61.90;;;;;;5124749;27;20051;-76
2023/05/20 11:42:32;;;;;;;6.47;1.98;;;23.00;60.70;;;;;;5094909;28;20058;-75
2023/05/20 11:44:59;;;;;;;6.30;1.90;;;23.10;61.70;;;;;;5097320;28;20407;-76
2023/05/20 11:47:28;;;;;;;3.53;1.83;;;23.20;61.50;;;;;;5128000;27;20053;-76
2023/05/20 11:49:55;;;;;;;4.13;1.80;;;23.40;61.50;;;;;;5106000;28;20072;-76
2023/05/20 11:52:21;;;;;;;7.97;2.03;;;23.50;61.30;;;;;;5105309;28;20043;-77
2023/05/20 11:54:53;;;;;;;8.13;2.25;;;23.60;61.00;;;;;;5109104;28;20498;-72
2023/05/20 11:57:19;;;;;;;4.10;1.80;;;24.00;61.60;;;;;;5112038;28;20052;-74
2023/05/20 11:59:46;;;;;;;4.78;1.60;;;24.60;61.00;;;;;;5111100;28;20055;-73
2023/05/20 12:02:11;;;;;;;4.85;2.00;;;25.10;60.20;;;;;;5111914;28;20051;-77
2023/05/20 12:04:37;;;;;;;3.72;1.88;;;25.20;58.70;;;;;;5111316;28;20047;-77
2023/05/20 12:07:05;;;;;;;6.65;1.90;;;25.00;57.10;;;;;;5128421;27;20036;-77
2023/05/20 12:09:31;;;;;;;7.30;1.80;;;24.70;54.80;;;;;;5111329;28;20109;-75
2023/05/20 12:11:58;;;;;;;7.72;1.80;;;24.90;55.20;;;;;;5128773;27;20051;-76
2023/05/20 12:14:23;;;;;;;5.45;1.83;;;25.20;54.80;;;;;;5111177;28;20044;-78
2023/05/20 12:16:49;;;;;;;3.90;1.90;;;25.30;53.80;;;;;;5128145;27;20051;-76
2023/05/20 12:19:15;;;;;;;6.30;1.65;;;25.40;54.20;;;;;;5102588;28;20105;-75
2023/05/20 12:21:41;;;;;;;3.75;1.75;;;25.50;53.60;;;;;;5087629;28;20044;-76
2023/05/20 12:24:07;;;;;;;6.63;1.70;;;25.70;54.00;;;;;;5081698;28;20050;-76
2023/05/20 12:26:34;;;;;;;4.35;1.60;;;25.80;53.10;;;;;;5128225;27;20078;-76
2023/05/20 12:29:00;;;;;;;2.92;1.45;;;26.00;52.10;;;;;;5127804;27;20100;-75
2023/05/20 12:31:26;;;;;;;3.92;1.58;;;26.30;51.20;;;;;;5128593;27;20093;-80
2023/05/20 12:33:51;;;;;;;7.38;1.85;;;26.50;51.30;;;;;;5110925;28;20040;-75
2023/05/20 12:36:18;;;;;;;5.40;1.90;;;26.90;52.30;;;;;;5128232;27;20485;-76
2023/05/20 12:38:44;;;;;;;4.90;1.90;;;27.40;52.30;;;;;;5127423;27;20043;-77
2023/05/20 12:41:10;;;;;;;3.95;1.70;;;27.60;50.90;;;;;;5094533;28;20064;-75
2023/05/20 12:43:36;;;;;;;7.50;1.88;;;27.70;50.00;;;;;;5110245;28;20068;-76
2023/05/20 12:46:02;;;;;;;6.57;1.63;;;28.10;49.80;;;;;;5127954;27;20548;-75
2023/05/20 12:48:28;;;;;;;5.50;1.90;;;28.20;49.80;;;;;;5108698;28;20044;-81
2023/05/20 12:50:53;;;;;;;4.60;1.80;;;28.10;48.50;;;;;;5122074;27;20105;-75